createdAt,value
2023-04-12T00:00:16.760Z,34.98535
2023-04-12T00:00:46.742Z,35.05859
2023-04-12T00:01:16.744Z,35.00586
2023-04-12T00:01:46.754Z,35.49121
2023-04-12T00:02:16.842Z,35.7168
2023-04-12T00:02:46.914Z,35.58789
2023-04-12T00:03:16.824Z,35.43555
2023-04-12T00:03:46.914Z,35.7168
2023-04-12T00:04:16.871Z,35.86719
2023-04-12T00:04:47.013Z,35.75879
2023-04-12T00:05:16.818Z,35.82422
2023-04-12T00:05:46.739Z,35.80273
2023-04-12T00:06:16.750Z,35.69434
2023-04-12T00:06:46.745Z,35.9209
2023-04-12T00:07:16.747Z,36.02734
2023-04-12T00:07:46.754Z,35.85352
2023-04-12T00:08:16.811Z,35.87598
2023-04-12T00:08:46.740Z,35.51758
2023-04-12T00:09:16.745Z,35.46191
2023-04-12T00:09:46.753Z,35.50488
2023-04-12T00:10:16.742Z,35.77441
2023-04-12T00:10:46.741Z,35.52441
2023-04-12T00:11:16.749Z,35.32715
2023-04-12T00:11:46.745Z,35.43262
2023-04-12T00:12:16.746Z,35.66797
2023-04-12T00:12:46.742Z,35.29883
2023-04-12T00:13:16.752Z,35.73145
2023-04-12T00:13:46.738Z,35.8916
2023-04-12T00:14:16.748Z,35.80273
2023-04-12T00:14:46.775Z,35.62012
2023-04-12T00:15:16.749Z,35.65332
2023-04-12T00:15:46.817Z,35.68652
2023-04-12T00:16:16.810Z,36.22656
2023-04-12T00:16:46.742Z,35.94629
2023-04-12T00:17:16.752Z,35.78516
2023-04-12T00:17:46.789Z,35.73145
2023-04-12T00:18:16.756Z,35.75391
2023-04-12T00:18:46.743Z,35.89453
2023-04-12T00:19:16.753Z,35.98145
2023-04-12T00:19:46.750Z,36.39258
2023-04-12T00:20:16.750Z,36.39258
2023-04-12T00:20:46.747Z,36.28418
2023-04-12T00:21:16.746Z,36.10059
2023-04-12T00:21:46.743Z,35.86426
2023-04-12T00:22:16.760Z,35.57324
2023-04-12T00:22:46.756Z,35.84082
2023-04-12T00:23:16.747Z,35.59082
2023-04-12T00:23:46.744Z,35.13574
2023-04-12T00:24:16.747Z,34.69238
2023-04-12T00:24:46.742Z,34.31348
2023-04-12T00:25:16.755Z,35.90918
2023-04-12T00:25:46.747Z,36.00391
2023-04-12T00:26:16.750Z,35.87207
2023-04-12T00:26:46.753Z,35.86133
2023-04-12T00:27:16.775Z,35.81836
2023-04-12T00:27:46.744Z,35.74316
2023-04-12T00:28:16.750Z,35.54883
2023-04-12T00:28:46.748Z,35.93555
2023-04-12T00:29:16.752Z,35.98926
2023-04-12T00:29:46.758Z,35.65527
2023-04-12T00:30:16.754Z,35.61328
2023-04-12T00:30:46.749Z,35.75391
2023-04-12T00:31:16.814Z,36.20605
2023-04-12T00:31:46.843Z,36.44238
2023-04-12T00:32:16.763Z,36.72168
2023-04-12T00:32:46.768Z,36.43066
2023-04-12T00:33:16.753Z,36.69043
2023-04-12T00:33:46.743Z,36.3877
2023-04-12T00:34:16.750Z,36.33398
2023-04-12T00:34:46.758Z,36.2793
2023-04-12T00:35:16.753Z,36.24707
2023-04-12T00:35:46.788Z,36.60352
2023-04-12T00:36:16.811Z,36.36719
2023-04-12T00:36:46.747Z,36.17285
2023-04-12T00:37:16.749Z,36.46387
2023-04-12T00:37:46.746Z,36.60352
2023-04-12T00:38:16.754Z,36.18066
2023-04-12T00:38:46.757Z,36.01563
2023-04-12T00:39:16.757Z,35.97168
2023-04-12T00:39:46.747Z,35.92676
2023-04-12T00:40:16.751Z,35.51758
2023-04-12T00:40:46.751Z,35.79883
2023-04-12T00:41:16.755Z,36.02539
2023-04-12T00:41:46.752Z,36.00391
2023-04-12T00:42:16.765Z,35.66895
2023-04-12T00:42:46.749Z,35.2373
2023-04-12T00:43:16.752Z,36.30859
2023-04-12T00:43:46.749Z,36.15625
2023-04-12T00:44:16.764Z,36.50293
2023-04-12T00:44:46.757Z,35.76758
2023-04-12T00:45:16.762Z,35.9082
2023-04-12T00:45:46.754Z,35.82031
2023-04-12T00:46:16.795Z,35.24512
2023-04-12T00:46:46.834Z,35.6543
2023-04-12T00:47:16.758Z,35.93457
2023-04-12T00:47:46.802Z,36.10645
2023-04-12T00:48:16.767Z,35.4248
2023-04-12T00:48:46.750Z,36.30078
2023-04-12T00:49:16.754Z,36.44336
2023-04-12T00:49:46.747Z,36.04492
2023-04-12T00:50:16.779Z,36.19824
2023-04-12T00:50:46.756Z,36.18652
2023-04-12T00:51:16.759Z,35.47266
2023-04-12T00:51:46.751Z,35.38477
2023-04-12T00:52:16.752Z,35.94531
2023-04-12T00:52:46.749Z,35.83789
2023-04-12T00:53:16.752Z,35.79395
2023-04-12T00:53:46.746Z,35.55371
2023-04-12T00:54:16.752Z,35.49707
2023-04-12T00:54:46.748Z,36.00488
2023-04-12T00:55:16.771Z,36.14648
2023-04-12T00:55:46.764Z,35.99609
2023-04-12T00:56:16.761Z,36.27832
2023-04-12T00:56:46.758Z,36.42871
2023-04-12T00:57:16.761Z,35.84473
2023-04-12T00:57:46.757Z,35.7373
2023-04-12T00:58:16.747Z,35.58691
2023-04-12T00:58:46.751Z,35.83594
2023-04-12T00:59:16.799Z,35.84668
2023-04-12T00:59:46.752Z,36.44043
2023-04-12T01:00:16.763Z,35.86914
2023-04-12T01:00:46.776Z,36.37793
2023-04-12T01:01:16.866Z,35.94531
2023-04-12T01:01:46.842Z,36.33496
2023-04-12T01:02:16.796Z,36.3457
2023-04-12T01:02:46.896Z,36.43359
2023-04-12T01:03:16.983Z,36.54102
2023-04-12T01:03:46.866Z,36.82227
2023-04-12T01:04:16.771Z,36.02148
2023-04-12T01:04:46.752Z,36.01855
2023-04-12T01:05:16.765Z,35.99609
2023-04-12T01:05:46.749Z,36.32715
2023-04-12T01:06:16.779Z,36.04199
2023-04-12T01:06:46.765Z,36.52637
2023-04-12T01:07:16.771Z,36.8252
2023-04-12T01:07:46.755Z,37.09375
2023-04-12T01:08:16.759Z,36.87695
2023-04-12T01:08:46.746Z,36.93066
2023-04-12T01:09:16.755Z,36.77051
2023-04-12T01:09:46.757Z,37.08398
2023-04-12T01:10:16.760Z,37.24609
2023-04-12T01:10:46.753Z,37.08008
2023-04-12T01:11:16.761Z,36.33203
2023-04-12T01:11:46.763Z,36.5
2023-04-12T01:12:16.753Z,36.72168
2023-04-12T01:12:46.764Z,36.67383
2023-04-12T01:13:16.752Z,37.03516
2023-04-12T01:13:46.756Z,37.40918
2023-04-12T01:14:16.758Z,37.51465
2023-04-12T01:14:46.758Z,37.71875
2023-04-12T01:15:16.754Z,37.45703
2023-04-12T01:15:46.755Z,37.44531
2023-04-12T01:16:16.785Z,37.36914
2023-04-12T01:16:46.863Z,37.08984
2023-04-12T01:17:16.752Z,36.66016
2023-04-12T01:17:46.787Z,37.58887
2023-04-12T01:18:16.756Z,37.375
2023-04-12T01:18:46.753Z,37.04395
2023-04-12T01:19:16.759Z,37.47559
2023-04-12T01:19:46.754Z,37.79004
2023-04-12T01:20:16.780Z,37.54492
2023-04-12T01:20:46.751Z,38.18066
2023-04-12T01:21:16.760Z,37.78223
2023-04-12T01:21:46.751Z,37.72852
2023-04-12T01:22:16.751Z,37.31641
2023-04-12T01:22:46.752Z,37.48047
2023-04-12T01:23:16.770Z,38.11621
2023-04-12T01:23:46.765Z,38.45898
2023-04-12T01:24:16.752Z,38.91895
2023-04-12T01:24:46.759Z,38.63672
2023-04-12T01:25:16.766Z,38.11719
2023-04-12T01:25:46.790Z,37.66211
2023-04-12T01:26:16.793Z,38.65039
2023-04-12T01:26:46.750Z,38.80762
2023-04-12T01:27:16.753Z,38.7207
2023-04-12T01:27:46.749Z,38.72852
2023-04-12T01:28:16.756Z,38.52148
2023-04-12T01:28:46.756Z,38.83301
2023-04-12T01:29:16.756Z,38.3252
2023-04-12T01:29:46.747Z,37.90527
2023-04-12T01:30:16.759Z,38.78809
2023-04-12T01:30:46.767Z,39.08984
2023-04-12T01:31:16.792Z,39.15527
2023-04-12T01:31:46.767Z,38.87793
2023-04-12T01:32:16.755Z,38.46191
2023-04-12T01:32:46.758Z,38.92773
2023-04-12T01:33:16.761Z,38.85156
2023-04-12T01:33:46.753Z,38.12012
2023-04-12T01:34:16.760Z,37.47266
2023-04-12T01:34:46.761Z,37.02051
2023-04-12T01:35:16.753Z,37.25781
2023-04-12T01:35:46.766Z,37.50586
2023-04-12T01:36:16.782Z,37.55176
2023-04-12T01:36:46.754Z,37.00293
2023-04-12T01:37:16.762Z,37.4375
2023-04-12T01:37:46.758Z,37.33203
2023-04-12T01:38:16.761Z,37.64648
2023-04-12T01:38:46.769Z,38.16309
2023-04-12T01:39:16.761Z,38.25
2023-04-12T01:39:46.753Z,38.02344
2023-04-12T01:40:16.765Z,38.20508
2023-04-12T01:40:46.760Z,38.34375
2023-04-12T01:41:16.777Z,38.04297
2023-04-12T01:41:46.758Z,38.36523
2023-04-12T01:42:16.763Z,37.82715
2023-04-12T01:42:46.757Z,37.87207
2023-04-12T01:43:16.758Z,38.29395
2023-04-12T01:43:46.762Z,38.33691
2023-04-12T01:44:16.762Z,38.08789
2023-04-12T01:44:46.754Z,37.77441
2023-04-12T01:45:16.766Z,37.18066
2023-04-12T01:45:46.794Z,37.20117
2023-04-12T01:46:16.787Z,37.38477
2023-04-12T01:46:46.795Z,38.10645
2023-04-12T01:47:16.785Z,38.36426
2023-04-12T01:47:46.783Z,38.09473
2023-04-12T01:48:16.761Z,38.05078
2023-04-12T01:48:46.760Z,37.97266
2023-04-12T01:49:16.760Z,38.25195
2023-04-12T01:49:46.763Z,38.16504
2023-04-12T01:50:16.766Z,37.64941
2023-04-12T01:50:46.757Z,38.32813
2023-04-12T01:51:16.764Z,37.86523
2023-04-12T01:51:46.758Z,37.58594
2023-04-12T01:52:16.772Z,38.0918
2023-04-12T01:52:46.762Z,38.37012
2023-04-12T01:53:16.770Z,38.19727
2023-04-12T01:53:46.762Z,37.30371
2023-04-12T01:54:16.763Z,37.2832
2023-04-12T01:54:46.760Z,37.89941
2023-04-12T01:55:16.776Z,37.2627
2023-04-12T01:55:46.772Z,37.62891
2023-04-12T01:56:16.770Z,37.43555
2023-04-12T01:56:46.762Z,37.37012
2023-04-12T01:57:16.765Z,37.33496
2023-04-12T01:57:46.768Z,37.52637
2023-04-12T01:58:16.766Z,37.55469
2023-04-12T01:58:46.760Z,37.25195
2023-04-12T01:59:16.764Z,37.28711
2023-04-12T01:59:46.757Z,37.47363
2023-04-12T02:00:16.773Z,37.1748
2023-04-12T02:00:46.770Z,37.80371
2023-04-12T02:01:16.799Z,38.22461
2023-04-12T02:01:46.862Z,38.26855
2023-04-12T02:02:16.864Z,38.41992
2023-04-12T02:02:46.919Z,38.14063
2023-04-12T02:03:16.969Z,37.66699
2023-04-12T02:03:46.836Z,37.16113
2023-04-12T02:04:16.823Z,37.48633
2023-04-12T02:04:46.772Z,37.60547
2023-04-12T02:05:16.768Z,37.6377
2023-04-12T02:05:46.767Z,37.7998
2023-04-12T02:06:16.757Z,37.59473
2023-04-12T02:06:46.758Z,37.83203
2023-04-12T02:07:16.791Z,37.9502
2023-04-12T02:07:46.757Z,38.20801
2023-04-12T02:08:16.772Z,38.13379
2023-04-12T02:08:46.760Z,36.60352
2023-04-12T02:09:16.770Z,37.43555
2023-04-12T02:09:46.763Z,37.08105
2023-04-12T02:10:16.798Z,36.49023
2023-04-12T02:10:46.757Z,36.66602
2023-04-12T02:11:16.792Z,37.08789
2023-04-12T02:11:46.771Z,36.88574
2023-04-12T02:12:16.775Z,36.88672
2023-04-12T02:12:46.765Z,36.95215
2023-04-12T02:13:16.775Z,36.74902
2023-04-12T02:13:46.768Z,36.87012
2023-04-12T02:14:16.789Z,36.84082
2023-04-12T02:14:46.761Z,36.86133
2023-04-12T02:15:16.805Z,36.57129
2023-04-12T02:15:46.769Z,36.67969
2023-04-12T02:16:16.848Z,36.86328
2023-04-12T02:16:46.781Z,37.03418
2023-04-12T02:17:16.778Z,37.37598
2023-04-12T02:17:46.827Z,37.33008
2023-04-12T02:18:16.763Z,37.1875
2023-04-12T02:18:46.763Z,36.92871
2023-04-12T02:19:16.760Z,36.9707
2023-04-12T02:19:46.764Z,36.96094
2023-04-12T02:20:16.767Z,37.05664
2023-04-12T02:20:46.761Z,37.15332
2023-04-12T02:21:16.769Z,37.46777
2023-04-12T02:21:46.772Z,37.19727
2023-04-12T02:22:16.772Z,36.7041
2023-04-12T02:22:46.764Z,36.36035
2023-04-12T02:23:16.770Z,36.31836
2023-04-12T02:23:46.768Z,36.35059
2023-04-12T02:24:16.784Z,36.17871
2023-04-12T02:24:46.772Z,36.06055
2023-04-12T02:25:16.772Z,36.24316
2023-04-12T02:25:46.763Z,36.82227
2023-04-12T02:26:16.768Z,37.29297
2023-04-12T02:26:46.762Z,37.9375
2023-04-12T02:27:16.763Z,37.50293
2023-04-12T02:27:46.767Z,36.92188
2023-04-12T02:28:16.772Z,36.65527
2023-04-12T02:28:46.769Z,37.3252
2023-04-12T02:29:16.763Z,36.8623
2023-04-12T02:29:46.773Z,37.08887
2023-04-12T02:30:16.764Z,36.86523
2023-04-12T02:30:46.789Z,36.37207
2023-04-12T02:31:17.085Z,36.51367
2023-04-12T02:31:46.775Z,36.14844
2023-04-12T02:32:16.760Z,35.75488
2023-04-12T02:32:46.820Z,35.62012
2023-04-12T02:33:16.776Z,35.41992
2023-04-12T02:33:46.770Z,35.39258
2023-04-12T02:34:16.771Z,36.02051
2023-04-12T02:34:46.764Z,35.66797
2023-04-12T02:35:16.836Z,35.6709
2023-04-12T02:35:46.862Z,35.67383
2023-04-12T02:36:16.777Z,35.82422
2023-04-12T02:36:46.764Z,36.09473
2023-04-12T02:37:16.776Z,35.90137
2023-04-12T02:37:46.765Z,35.69922
2023-04-12T02:38:16.768Z,35.43359
2023-04-12T02:38:46.767Z,35.85742
2023-04-12T02:39:16.772Z,36.05176
2023-04-12T02:39:46.771Z,35.96387
2023-04-12T02:40:16.786Z,36.09277
2023-04-12T02:40:46.769Z,36.30664
2023-04-12T02:41:16.780Z,36.0332
2023-04-12T02:41:46.767Z,36.04199
2023-04-12T02:42:16.770Z,35.92188
2023-04-12T02:42:46.767Z,35.75
2023-04-12T02:43:16.767Z,35.64063
2023-04-12T02:43:46.790Z,35.83301
2023-04-12T02:44:16.777Z,36.09082
2023-04-12T02:44:46.763Z,35.96191
2023-04-12T02:45:16.767Z,35.82227
2023-04-12T02:45:46.824Z,35.6709
2023-04-12T02:46:16.786Z,35.21973
2023-04-12T02:46:46.767Z,35.47852
2023-04-12T02:47:16.769Z,35.35059
2023-04-12T02:47:46.802Z,35.64355
2023-04-12T02:48:16.770Z,35.38867
2023-04-12T02:48:46.768Z,35.2627
2023-04-12T02:49:16.772Z,34.89844
2023-04-12T02:49:46.773Z,35.19043
2023-04-12T02:50:16.772Z,35.16992
2023-04-12T02:50:46.776Z,34.90234
2023-04-12T02:51:16.784Z,35.04785
2023-04-12T02:51:46.771Z,34.25293
2023-04-12T02:52:16.784Z,34.32031
2023-04-12T02:52:46.770Z,33.99902
2023-04-12T02:53:16.780Z,34.16699
2023-04-12T02:53:46.794Z,33.95508
2023-04-12T02:54:16.782Z,33.89551
2023-04-12T02:54:46.765Z,33.53223
2023-04-12T02:55:16.762Z,33.71875
2023-04-12T02:55:46.769Z,33.63477
2023-04-12T02:56:16.778Z,33.56055
2023-04-12T02:56:46.788Z,33.45508
2023-04-12T02:57:16.787Z,33.8252
2023-04-12T02:57:46.765Z,33.15625
2023-04-12T02:58:16.768Z,33.25488
2023-04-12T02:58:46.762Z,33.23535
2023-04-12T02:59:16.768Z,33.25879
2023-04-12T02:59:46.765Z,32.87402
2023-04-12T03:00:16.775Z,33.01758
2023-04-12T03:00:46.806Z,32.93359
2023-04-12T03:01:16.814Z,33.29199
2023-04-12T03:01:47.048Z,33.94531
2023-04-12T03:02:16.838Z,34.33789
2023-04-12T03:02:47.001Z,34.08789
2023-04-12T03:03:16.890Z,34.34961
2023-04-12T03:03:46.944Z,35.05273
2023-04-12T03:04:16.914Z,34.74023
2023-04-12T03:04:46.804Z,33.58203
2023-04-12T03:05:16.772Z,33.19336
2023-04-12T03:05:46.766Z,32.35156
2023-04-12T03:06:16.777Z,32.36426
2023-04-12T03:06:46.804Z,32.65918
2023-04-12T03:07:16.776Z,32.85352
2023-04-12T03:07:46.780Z,33.78711
2023-04-12T03:08:16.797Z,33.78906
2023-04-12T03:08:46.784Z,33.6084
2023-04-12T03:09:16.782Z,33.77441
2023-04-12T03:09:46.765Z,33.6582
2023-04-12T03:10:16.812Z,34.01758
2023-04-12T03:10:46.765Z,33.7373
2023-04-12T03:11:16.773Z,33.12891
2023-04-12T03:11:46.769Z,32.74023
2023-04-12T03:12:16.773Z,32.55469
2023-04-12T03:12:46.765Z,32.43457
2023-04-12T03:13:16.771Z,32.09961
2023-04-12T03:13:46.765Z,31.93066
2023-04-12T03:14:16.772Z,31.72559
2023-04-12T03:14:46.765Z,32.43848
2023-04-12T03:15:16.771Z,32.42285
2023-04-12T03:15:46.858Z,32.15137
2023-04-12T03:16:16.783Z,31.96875
2023-04-12T03:16:46.766Z,32.04395
2023-04-12T03:17:16.768Z,32.11719
2023-04-12T03:17:46.813Z,32.125
2023-04-12T03:18:16.787Z,31.86426
2023-04-12T03:18:46.773Z,31.73633
2023-04-12T03:19:16.792Z,31.82617
2023-04-12T03:19:46.770Z,31.74512
2023-04-12T03:20:16.774Z,31.82617
2023-04-12T03:20:47.827Z,31.4707
2023-04-12T03:21:16.773Z,31.24512
2023-04-12T03:21:46.782Z,31.68945
2023-04-12T03:22:16.778Z,32.02539
2023-04-12T03:22:46.772Z,32.45703
2023-04-12T03:23:16.786Z,31.98926
2023-04-12T03:23:46.799Z,32.06445
2023-04-12T03:24:16.791Z,31.8252
2023-04-12T03:24:46.768Z,31.83789
2023-04-12T03:25:16.820Z,31.39844
2023-04-12T03:25:46.790Z,31.21973
2023-04-12T03:26:16.774Z,31.20313
2023-04-12T03:26:46.773Z,31.19824
2023-04-12T03:27:16.772Z,31.06152
2023-04-12T03:27:46.767Z,31.09766
2023-04-12T03:28:16.772Z,30.95898
2023-04-12T03:28:46.767Z,31.08984
2023-04-12T03:29:16.778Z,31.59863
2023-04-12T03:29:46.772Z,31.41309
2023-04-12T03:30:16.778Z,31.54102
2023-04-12T03:30:46.786Z,31.51953
2023-04-12T03:31:16.843Z,31.22754
2023-04-12T03:31:46.768Z,31.10547
2023-04-12T03:32:16.771Z,31.1084
2023-04-12T03:32:46.808Z,30.90527
2023-04-12T03:33:16.773Z,30.96387
2023-04-12T03:33:46.778Z,30.97656
2023-04-12T03:34:16.772Z,31.17188
2023-04-12T03:34:46.769Z,31.21582
2023-04-12T03:35:16.845Z,31.2168
2023-04-12T03:35:46.795Z,31.14063
2023-04-12T03:36:16.783Z,31.47656
2023-04-12T03:36:46.787Z,31.32324
2023-04-12T03:37:16.801Z,31.01855
2023-04-12T03:37:46.774Z,31.16016
2023-04-12T03:38:16.791Z,31.13086
2023-04-12T03:38:46.777Z,30.71875
2023-04-12T03:39:16.786Z,30.78613
2023-04-12T03:39:46.799Z,30.62695
2023-04-12T03:40:16.774Z,30.6709
2023-04-12T03:40:46.772Z,30.62891
2023-04-12T03:41:16.809Z,30.48926
2023-04-12T03:41:46.777Z,30.40625
2023-04-12T03:42:31.718Z,30.25781
2023-04-12T03:42:47.780Z,30.29199
2023-04-12T03:43:16.772Z,30.28418
2023-04-12T03:43:46.772Z,30.02539
2023-04-12T03:44:16.777Z,30.73633
2023-04-12T03:44:46.770Z,30.36816
2023-04-12T03:45:16.777Z,30.31738
2023-04-12T03:45:46.771Z,30.00684
2023-04-12T03:46:16.812Z,29.91211
2023-04-12T03:46:46.818Z,29.7627
2023-04-12T03:47:16.780Z,29.77734
2023-04-12T03:47:46.799Z,29.91016
2023-04-12T03:48:16.774Z,29.70508
2023-04-12T03:48:46.791Z,29.79297
2023-04-12T03:49:16.784Z,29.49023
2023-04-12T03:49:54.719Z,29.22363
2023-04-12T03:50:17.747Z,29.10742
2023-04-12T03:50:46.774Z,29.27441
2023-04-12T03:51:16.782Z,29.33008
2023-04-12T03:51:46.784Z,29.05273
2023-04-12T03:52:16.780Z,29.07715
2023-04-12T03:52:46.779Z,29.22949
2023-04-12T03:53:16.784Z,29.50098
2023-04-12T03:53:46.784Z,29.05371
2023-04-12T03:54:16.784Z,29.05469
2023-04-12T03:54:46.813Z,29.1123
2023-04-12T03:55:16.780Z,28.59375
2023-04-12T03:55:46.775Z,28.58594
2023-04-12T03:56:16.785Z,28.74219
2023-04-12T03:56:46.785Z,28.76465
2023-04-12T03:57:16.776Z,28.6123
2023-04-12T03:57:46.791Z,28.25781
2023-04-12T03:58:16.777Z,28.28613
2023-04-12T03:58:46.772Z,28.34277
2023-04-12T03:59:16.787Z,28.18555
2023-04-12T03:59:46.774Z,27.92773
2023-04-12T04:00:16.785Z,27.5918
2023-04-12T04:00:46.776Z,27.75684
2023-04-12T04:01:16.783Z,28.01074
2023-04-12T04:01:46.807Z,27.6709
2023-04-12T04:02:16.878Z,27.49902
2023-04-12T04:02:46.833Z,27.57617
2023-04-12T04:03:16.880Z,27.43945
2023-04-12T04:03:46.902Z,27.51172
2023-04-12T04:04:16.903Z,27.46973
2023-04-12T04:04:46.796Z,27.3291
2023-04-12T04:05:16.874Z,27.21289
2023-04-12T04:05:46.780Z,26.92969
2023-04-12T04:06:16.789Z,27.19238
2023-04-12T04:06:46.784Z,27.18066
2023-04-12T04:07:16.788Z,27.52832
2023-04-12T04:07:46.793Z,27.2207
2023-04-12T04:08:16.790Z,26.43652
2023-04-12T04:08:46.780Z,26.30859
2023-04-12T04:09:16.789Z,26.69141
2023-04-12T04:09:46.784Z,26.40723
2023-04-12T04:10:16.833Z,26.89746
2023-04-12T04:10:46.780Z,26.84082
2023-04-12T04:11:16.780Z,26.25488
2023-04-12T04:11:46.785Z,26.37598
2023-04-12T04:12:16.872Z,26.66016
2023-04-12T04:12:46.777Z,26.22754
2023-04-12T04:13:16.786Z,26.35059
2023-04-12T04:13:46.826Z,25.93945
2023-04-12T04:14:16.824Z,25.24512
2023-04-12T04:14:46.802Z,23.92773
2023-04-12T04:15:16.799Z,22.9082
2023-04-12T04:15:46.800Z,21.21875
2023-04-12T04:16:16.902Z,19.84863
2023-04-12T04:16:46.838Z,18.73926
2023-04-12T04:17:16.785Z,17.73633
2023-04-12T04:17:46.813Z,16.91797
2023-04-12T04:18:16.790Z,17.0918
2023-04-12T04:18:46.776Z,16.83105
2023-04-12T04:19:16.785Z,16.52441
2023-04-12T04:19:46.777Z,16.2168
2023-04-12T04:20:16.783Z,15.77344
2023-04-12T04:20:46.782Z,15.32129
2023-04-12T04:21:16.789Z,15.57422
2023-04-12T04:21:46.780Z,15.41602
2023-04-12T04:22:16.790Z,15.94141
2023-04-12T04:22:46.789Z,15.53223
2023-04-12T04:23:16.792Z,14.8125
2023-04-12T04:23:46.778Z,14.91699
2023-04-12T04:24:16.784Z,14.12305
2023-04-12T04:24:46.780Z,13.23047
2023-04-12T04:25:16.784Z,12.64063
2023-04-12T04:25:46.786Z,12.99512
2023-04-12T04:26:16.788Z,13.24414
2023-04-12T04:26:46.778Z,12.47656
2023-04-12T04:27:16.791Z,12.58301
2023-04-12T04:27:46.786Z,13.12305
2023-04-12T04:28:16.787Z,13.6123
2023-04-12T04:28:46.787Z,13.31934
2023-04-12T04:29:16.797Z,13.28613
2023-04-12T04:29:46.782Z,13.16406
2023-04-12T04:30:16.792Z,14.20215
2023-04-12T04:30:46.782Z,15.69824
2023-04-12T04:31:16.832Z,16.63379
2023-04-12T04:31:46.794Z,17.48926
2023-04-12T04:32:16.789Z,17.94727
2023-04-12T04:32:46.797Z,18.34375
2023-04-12T04:33:16.789Z,19.05176
2023-04-12T04:33:46.803Z,20.13184
2023-04-12T04:34:16.789Z,21.30176
2023-04-12T04:34:46.790Z,21.31738
2023-04-12T04:35:17.068Z,21.40527
2023-04-12T04:35:46.856Z,22.30957
2023-04-12T04:36:16.789Z,22.38672
2023-04-12T04:36:46.860Z,22.71094
2023-04-12T04:37:16.795Z,22.91699
2023-04-12T04:37:46.800Z,22.57813
2023-04-12T04:38:16.813Z,21.67969
2023-04-12T04:38:46.805Z,20.23438
2023-04-12T04:39:16.807Z,18.84766
2023-04-12T04:39:46.812Z,17.71777
2023-04-12T04:40:16.818Z,16.09277
2023-04-12T04:40:46.794Z,14.64258
2023-04-12T04:41:16.806Z,13.21289
2023-04-12T04:41:46.975Z,11.76172
2023-04-12T04:42:16.798Z,11.49512
2023-04-12T04:42:46.794Z,11.22559
2023-04-12T04:43:16.806Z,10.77246
2023-04-12T04:43:46.858Z,10.46094
2023-04-12T04:44:16.825Z,10.12695
2023-04-12T04:44:46.789Z,9.348633
2023-04-12T04:45:16.797Z,9.325195
2023-04-12T04:45:46.818Z,9.511719
2023-04-12T04:46:16.875Z,9.547852
2023-04-12T04:46:46.793Z,9.561523
2023-04-12T04:47:16.795Z,8.943359
2023-04-12T04:47:46.822Z,8.454102
2023-04-12T04:48:16.799Z,7.701172
2023-04-12T04:48:46.790Z,8.991211
2023-04-12T04:49:16.804Z,9.611328
2023-04-12T04:49:46.789Z,9.650391
2023-04-12T04:50:16.829Z,9.813477
2023-04-12T04:50:46.792Z,9.876953
2023-04-12T04:51:16.800Z,9.048828
2023-04-12T04:51:46.798Z,8.204102
2023-04-12T04:52:16.800Z,7.8125
2023-04-12T04:52:46.801Z,7.887695
2023-04-12T04:53:16.801Z,8.333984
2023-04-12T04:53:46.796Z,8.708984
2023-04-12T04:54:16.865Z,9.02832
2023-04-12T04:54:46.797Z,9.092773
2023-04-12T04:55:16.805Z,9.032227
2023-04-12T04:55:46.823Z,8.552734
2023-04-12T04:56:16.801Z,9.506836
2023-04-12T04:56:46.809Z,9.34082
2023-04-12T04:57:16.798Z,8.895508
2023-04-12T04:57:46.832Z,8.692383
2023-04-12T04:58:16.792Z,8.276367
2023-04-12T04:58:46.798Z,8.621094
2023-04-12T04:59:16.803Z,8.966797
2023-04-12T04:59:46.807Z,7.945313
2023-04-12T05:00:16.825Z,7.900391
2023-04-12T05:00:46.830Z,8.259766
2023-04-12T05:01:16.968Z,7.836914
2023-04-12T05:01:46.997Z,7.557617
2023-04-12T05:02:16.932Z,7.314453
2023-04-12T05:02:46.856Z,6.761719
2023-04-12T05:03:16.877Z,6.724609
2023-04-12T05:03:46.865Z,6.936523
2023-04-12T05:04:16.852Z,7.107422
2023-04-12T05:04:46.794Z,8.030273
2023-04-12T05:05:16.798Z,8.350586
2023-04-12T05:05:46.798Z,8.546875
2023-04-12T05:06:16.801Z,8.822266
2023-04-12T05:06:46.830Z,8.950195
2023-04-12T05:07:16.828Z,8.606445
2023-04-12T05:07:46.802Z,8.673828
2023-04-12T05:08:16.806Z,8.878906
2023-04-12T05:08:46.795Z,8.652344
2023-04-12T05:09:16.801Z,8.901367
2023-04-12T05:09:46.797Z,8.162109
2023-04-12T05:10:16.803Z,8.710938
2023-04-12T05:10:46.796Z,7.918945
2023-04-12T05:11:16.831Z,7.318359
2023-04-12T05:11:46.800Z,8.017578
2023-04-12T05:12:16.857Z,7.732422
2023-04-12T05:12:46.801Z,8.28418
2023-04-12T05:13:16.806Z,7.783203
2023-04-12T05:13:46.795Z,7.052734
2023-04-12T05:14:16.794Z,7.126953
2023-04-12T05:14:49.811Z,6.731445
2023-04-12T05:15:17.730Z,6.37207
2023-04-12T05:15:46.799Z,6.734375
2023-04-12T05:16:16.846Z,7.132813
2023-04-12T05:16:46.827Z,7.791992
2023-04-12T05:17:16.802Z,8.227539
2023-04-12T05:17:46.839Z,7.396484
2023-04-12T05:18:16.801Z,7.625
2023-04-12T05:18:46.797Z,7.667969
2023-04-12T05:19:16.803Z,8.305664
2023-04-12T05:19:46.802Z,8.302734
2023-04-12T05:20:16.805Z,8.104492
2023-04-12T05:20:46.807Z,8.206055
2023-04-12T05:21:16.808Z,8.045898
2023-04-12T05:21:46.801Z,8.170898
2023-04-12T05:22:16.802Z,8.086914
2023-04-12T05:22:46.806Z,7.779297
2023-04-12T05:23:16.831Z,7.396484
2023-04-12T05:23:46.830Z,6.567383
2023-04-12T05:24:16.813Z,6.276367
2023-04-12T05:24:46.799Z,5.961914
2023-04-12T05:25:16.807Z,6.746094
2023-04-12T05:25:46.818Z,6.495117
2023-04-12T05:26:16.810Z,6.625
2023-04-12T05:26:46.797Z,6.203125
2023-04-12T05:27:16.805Z,5.767578
2023-04-12T05:27:47.272Z,5.724609
2023-04-12T05:28:16.809Z,5.888672
2023-04-12T05:28:46.809Z,7.024414
2023-04-12T05:29:16.829Z,7.873047
2023-04-12T05:29:46.803Z,8.441406
2023-04-12T05:30:16.817Z,8.633789
2023-04-12T05:30:46.897Z,7.792969
2023-04-12T05:31:16.853Z,8.394531
2023-04-12T05:31:46.799Z,8.333984
2023-04-12T05:32:16.808Z,8.182617
2023-04-12T05:32:46.854Z,8.341797
2023-04-12T05:33:16.856Z,8.169922
2023-04-12T05:33:46.807Z,7.319336
2023-04-12T05:34:16.828Z,6.801758
2023-04-12T05:34:46.813Z,6.212891
2023-04-12T05:35:16.812Z,6.839844
2023-04-12T05:35:46.840Z,6.427734
2023-04-12T05:36:16.808Z,6.420898
2023-04-12T05:36:46.807Z,6.101563
2023-04-12T05:37:16.811Z,6.52832
2023-04-12T05:37:46.819Z,6.598633
2023-04-12T05:38:16.833Z,6.071289
2023-04-12T05:38:46.810Z,6.475586
2023-04-12T05:39:18.283Z,6.145508
2023-04-12T05:39:47.805Z,5.791992
2023-04-12T05:40:16.817Z,5.704102
2023-04-12T05:40:46.806Z,6.586914
2023-04-12T05:41:16.820Z,6.547852
2023-04-12T05:41:46.811Z,6.880859
2023-04-12T05:42:16.829Z,6.441406
2023-04-12T05:42:46.808Z,6.118164
2023-04-12T05:43:16.815Z,5.689453
2023-04-12T05:43:46.816Z,5.783203
2023-04-12T05:44:16.823Z,6.013672
2023-04-12T05:44:49.274Z,6.628906
2023-04-12T05:45:17.930Z,6.59375
2023-04-12T05:45:46.831Z,6.641602
2023-04-12T05:46:16.894Z,6.53125
2023-04-12T05:46:46.821Z,6.584961
2023-04-12T05:47:16.831Z,6.844727
2023-04-12T05:47:46.837Z,7.714844
2023-04-12T05:48:16.812Z,7.265625
2023-04-12T05:48:46.811Z,7.367188
2023-04-12T05:49:16.832Z,7.367188
2023-04-12T05:49:46.814Z,6.702148
2023-04-12T05:50:16.815Z,7.576172
2023-04-12T05:50:46.811Z,7.539063
2023-04-12T05:51:18.295Z,7.655273
2023-04-12T05:51:47.862Z,7.573242
2023-04-12T05:52:16.813Z,7.331055
2023-04-12T05:52:46.815Z,6.81543
2023-04-12T05:53:16.820Z,7.454102